Time;durP1;ratioP1;P1;durP2;ratioP2;P2;SDS_P1;SDS_P2;PMS_P1;PMS_P2;Temp;Humidity;BMP_temperature;BMP_pressure;BME280_temperature;BME280_humidity;BME280_pressure;Samples;Min_cycle;Max_cycle;Signal;HPM_P1;HPM_P2
2021/12/25 00:00:18;;;;;;;21.40;8.93;;;;;;;5.35;97.28;100351.59;5008658;28;20335;-79
2021/12/25 00:02:44;;;;;;;22.65;9.60;;;;;;;5.35;97.29;100346.28;4988815;28;20068;-81
2021/12/25 00:05:11;;;;;;;20.25;8.02;;;;;;;5.31;96.74;100352.72;4993030;28;20456;-79
2021/12/25 00:07:37;;;;;;;19.02;7.63;;;;;;;5.30;96.09;100343.88;4992529;28;20057;-79
2021/12/25 00:10:05;;;;;;;20.67;8.35;;;;;;;5.30;96.52;100348.34;4990751;28;20038;-79
2021/12/25 00:12:31;;;;;;;20.13;8.25;;;;;;;5.28;96.39;100345.75;5007873;28;20026;-79
2021/12/25 00:14:56;;;;;;;20.33;7.57;;;;;;;5.29;96.94;100354.63;4989300;28;20030;-79
2021/12/25 00:17:22;;;;;;;20.90;8.88;;;;;;;5.27;96.83;100356.50;5007425;28;20029;-79
2021/12/25 00:19:48;;;;;;;22.35;8.15;;;;;;;5.24;96.33;100347.78;4991625;28;20128;-79
2021/12/25 00:22:13;;;;;;;20.75;8.10;;;;;;;5.23;96.73;100347.84;4991677;28;20112;-79
2021/12/25 00:24:43;;;;;;;19.20;7.88;;;;;;;5.20;97.11;100338.22;5009068;28;20026;-79
2021/12/25 00:27:37;;;;;;;20.83;8.43;;;;;;;5.20;96.98;100338.22;5008953;28;20046;-79
2021/12/25 00:30:14;;;;;;;19.02;7.53;;;;;;;5.18;96.73;100329.50;5009295;28;20041;-79
2021/12/25 00:35:11;;;;;;;20.05;8.23;;;;;;;5.17;96.33;100337.53;5012623;28;20125;-79
2021/12/25 00:37:36;;;;;;;21.17;8.32;;;;;;;5.17;96.37;100330.44;4984013;28;20243;-79
2021/12/25 00:40:03;;;;;;;18.90;7.53;;;;;;;5.16;96.11;100336.69;5008973;28;20045;-79
2021/12/25 00:42:28;;;;;;;22.23;8.82;;;;;;;5.13;96.30;100339.53;4977275;28;20406;-79
2021/12/25 00:44:54;;;;;;;21.50;9.85;;;;;;;5.14;96.36;100337.72;5009836;28;20030;-79
2021/12/25 00:47:19;;;;;;;21.73;9.35;;;;;;;5.12;96.96;100336.97;5012603;28;20116;-79
2021/12/25 00:49:44;;;;;;;21.15;8.48;;;;;;;5.11;96.01;100348.56;4994998;28;20040;-79
2021/12/25 00:52:09;;;;;;;20.40;8.65;;;;;;;5.10;96.46;100346.88;5012241;28;20125;-79
2021/12/25 00:54:35;;;;;;;23.98;10.00;;;;;;;5.08;96.90;100339.81;5012370;28;20034;-79
2021/12/25 00:57:02;;;;;;;21.65;8.98;;;;;;;5.06;96.16;100352.34;5012591;28;20037;-79
2021/12/25 00:59:27;;;;;;;22.35;8.27;;;;;;;5.07;96.36;100345.25;5012930;28;20136;-79
2021/12/25 01:01:52;;;;;;;21.77;8.90;;;;;;;5.06;97.05;100346.19;5026758;28;20124;-79
2021/12/25 01:04:17;;;;;;;21.70;9.25;;;;;;;5.05;96.61;100342.66;4994294;28;20367;-79
2021/12/25 01:06:43;;;;;;;21.98;8.98;;;;;;;5.07;96.41;100345.25;4985172;28;20040;-79
2021/12/25 01:09:08;;;;;;;21.70;9.35;;;;;;;5.05;96.27;100344.44;5010740;28;20041;-79
2021/12/25 01:11:35;;;;;;;22.00;9.25;;;;;;;5.05;95.85;100348.00;5012910;28;20554;-79
2021/12/25 01:14:09;;;;;;;22.02;10.07;;;;;;;5.05;95.83;100337.34;4994510;28;20025;-79
2021/12/25 01:36:09;;;;;;;23.80;11.27;;;;;;;5.01;96.19;100327.81;5012201;28;20456;-79
2021/12/25 01:41:30;;;;;;;24.40;12.18;;;;;;;5.02;95.86;100341.97;5019429;28;20453;-79
2021/12/25 01:49:25;;;;;;;26.17;13.27;;;;;;;4.97;96.47;100328.06;5012384;28;20103;-79
2021/12/25 01:51:50;;;;;;;24.92;12.93;;;;;;;4.95;96.22;100333.50;5011069;28;20462;-79
2021/12/25 01:54:15;;;;;;;24.38;12.93;;;;;;;4.95;96.41;100329.94;4993869;28;21290;-79
2021/12/25 01:56:41;;;;;;;24.40;13.32;;;;;;;4.96;96.38;100329.03;4993653;28;20129;-79
2021/12/25 01:59:06;;;;;;;26.65;14.10;;;;;;;4.96;96.00;100329.88;5010693;28;20057;-79
2021/12/25 02:01:32;;;;;;;27.10;13.93;;;;;;;4.96;96.16;100331.69;5015116;28;20041;-82
2021/12/25 02:03:57;;;;;;;26.00;13.63;;;;;;;4.95;96.16;100333.50;4993560;28;20076;-83
2021/12/25 02:06:22;;;;;;;26.95;14.25;;;;;;;4.95;96.49;100329.94;4992246;28;20090;-83
2021/12/25 02:08:48;;;;;;;26.35;14.30;;;;;;;4.93;96.06;100329.19;4993248;28;20516;-83
2021/12/25 02:11:13;;;;;;;26.77;14.95;;;;;;;4.96;96.01;100335.19;4993009;28;20034;-83
2021/12/25 02:13:40;;;;;;;28.55;15.60;;;;;;;4.95;95.96;100328.16;5010829;28;20489;-83
2021/12/25 02:16:12;;;;;;;29.60;16.48;;;;;;;4.92;95.43;100335.47;5011782;28;20037;-83
2021/12/25 02:21:18;;;;;;;27.08;15.25;;;;;;;4.89;95.49;100332.03;5010343;28;20128;-83
2021/12/25 02:23:44;;;;;;;29.20;16.70;;;;;;;4.88;95.43;100319.66;4993962;28;20025;-83
2021/12/25 02:26:10;;;;;;;28.67;16.92;;;;;;;4.87;95.34;100319.75;5011378;28;20033;-83
2021/12/25 02:28:36;;;;;;;30.70;17.88;;;;;;;4.87;95.21;100319.75;4994254;28;20170;-83
2021/12/25 02:31:06;;;;;;;30.88;18.38;;;;;;;4.85;94.75;100322.50;4993162;28;20030;-83
2021/12/25 02:33:32;;;;;;;29.45;18.30;;;;;;;4.85;95.32;100324.31;4993674;28;20052;-83
2021/12/25 02:35:58;;;;;;;30.92;17.33;;;;;;;4.84;95.52;100318.13;5011565;28;20394;-83
2021/12/25 02:38:25;;;;;;;27.25;16.02;;;;;;;4.81;94.87;100331.63;4984611;28;20040;-83
2021/12/25 02:40:51;;;;;;;31.25;17.10;;;;;;;4.81;94.74;100331.63;5008043;28;20091;-83
2021/12/25 02:43:16;;;;;;;30.17;17.42;;;;;;;4.82;94.83;100333.34;5010365;28;20134;-83
2021/12/25 02:45:42;;;;;;;31.23;17.42;;;;;;;4.80;94.95;100329.91;4992631;28;20603;-83
2021/12/25 02:48:11;;;;;;;32.20;17.73;;;;;;;4.79;95.19;100333.53;5011471;28;20030;-83
2021/12/25 02:50:38;;;;;;;29.80;16.13;;;;;;;4.78;94.71;100334.47;4992431;28;20411;-84
2021/12/25 02:53:07;;;;;;;27.05;14.98;;;;;;;4.77;95.39;100334.56;4973162;28;20443;-83
2021/12/25 02:55:33;;;;;;;28.30;15.60;;;;;;;4.77;95.40;100330.06;5002597;28;20053;-83
2021/12/25 02:57:58;;;;;;;29.10;15.60;;;;;;;4.74;95.27;100332.91;4993241;28;20038;-83
2021/12/25 03:00:30;;;;;;;26.13;12.52;;;;;;;4.73;95.48;100328.56;5010137;28;20516;-83
2021/12/25 03:02:56;;;;;;;29.08;13.68;;;;;;;4.70;95.35;100334.03;4992875;28;20038;-83
2021/12/25 03:05:23;;;;;;;26.90;12.75;;;;;;;4.64;94.69;100335.25;5009272;28;20029;-83
2021/12/25 03:07:48;;;;;;;27.25;13.88;;;;;;;4.60;95.43;100339.03;4991485;28;20494;-83
2021/12/25 03:10:17;;;;;;;26.25;12.95;;;;;;;4.54;95.26;100337.56;4992559;28;20040;-83
2021/12/25 03:12:50;;;;;;;23.63;12.23;;;;;;;4.53;95.00;100343.84;5010041;28;20087;-84
2021/12/25 03:15:27;;;;;;;25.60;13.05;;;;;;;4.47;94.35;100343.34;4991730;28;20300;-83
2021/12/25 03:17:55;;;;;;;24.33;11.95;;;;;;;4.42;95.05;100343.56;4992291;28;20033;-83
2021/12/25 03:20:21;;;;;;;24.35;11.13;;;;;;;4.39;94.28;100346.41;5009526;28;20037;-83
2021/12/25 03:22:46;;;;;;;24.63;11.05;;;;;;;4.37;94.17;100350.97;4992045;28;20033;-83
2021/12/25 03:25:13;;;;;;;23.40;11.05;;;;;;;4.30;94.40;100361.06;5009983;28;20037;-84
2021/12/25 03:27:41;;;;;;;24.63;12.02;;;;;;;4.26;94.38;100356.00;5008754;28;20029;-83
2021/12/25 03:30:08;;;;;;;23.40;11.73;;;;;;;4.24;94.32;100365.88;4993154;28;20034;-83
2021/12/25 03:32:34;;;;;;;25.52;12.30;;;;;;;4.16;94.14;100364.50;4992505;28;20025;-83
2021/12/25 03:35:00;;;;;;;24.67;11.93;;;;;;;4.11;93.90;100371.84;4991639;28;20025;-83
2021/12/25 03:37:25;;;;;;;24.90;12.57;;;;;;;4.08;94.25;100369.38;4965354;28;20457;-83
2021/12/25 03:39:51;;;;;;;25.63;11.90;;;;;;;4.03;94.07;100376.75;5009761;28;20421;-83
2021/12/25 03:42:16;;;;;;;25.70;12.20;;;;;;;3.99;93.74;100375.19;4990304;28;20029;-84
2021/12/25 03:44:41;;;;;;;26.08;11.68;;;;;;;3.95;93.80;100365.66;4991710;28;20474;-83
2021/12/25 03:47:24;;;;;;;25.67;12.90;;;;;;;3.95;93.85;100371.84;5009405;28;20034;-83
2021/12/25 03:58:05;;;;;;;23.98;9.95;;;;;;;3.74;93.91;100368.50;5009233;28;20096;-82
2021/12/25 04:00:32;;;;;;;24.30;10.45;;;;;;;3.73;93.03;100374.75;5012403;28;20021;-84
2021/12/25 04:03:03;;;;;;;23.67;10.82;;;;;;;3.67;93.59;100378.63;4991279;28;20050;-83
2021/12/25 04:05:32;;;;;;;22.50;10.38;;;;;;;3.66;93.84;100374.25;4983731;28;20065;-82
2021/12/25 04:08:08;;;;;;;24.48;11.43;;;;;;;3.60;94.42;100379.88;5007231;28;20077;-83
2021/12/25 04:10:40;;;;;;;24.33;11.48;;;;;;;3.58;93.95;100386.22;5009289;28;20033;-83
2021/12/25 04:13:09;;;;;;;22.58;10.02;;;;;;;3.53;94.37;100389.09;4990725;28;20071;-82
2021/12/25 04:15:35;;;;;;;24.53;10.90;;;;;;;3.55;94.01;100391.69;4988404;28;20053;-83
2021/12/25 04:18:01;;;;;;;24.67;11.73;;;;;;;3.50;94.13;100389.28;4978844;28;20030;-82
2021/12/25 04:20:27;;;;;;;24.08;11.15;;;;;;;3.47;93.77;100394.72;5004334;28;20871;-82
2021/12/25 04:23:01;;;;;;;22.60;10.13;;;;;;;3.40;92.60;100399.50;5007735;28;20489;-83
2021/12/25 04:25:29;;;;;;;23.88;11.05;;;;;;;3.40;93.59;100404.81;4990843;28;20029;-82
2021/12/25 04:27:59;;;;;;;24.65;11.40;;;;;;;3.37;92.68;100410.28;4991672;28;20030;-83
2021/12/25 04:30:33;;;;;;;24.58;10.90;;;;;;;3.39;92.97;100407.53;5002042;28;20466;-82
2021/12/25 04:42:32;;;;;;;24.55;10.98;;;;;;;3.35;92.66;100406.81;4991319;28;20033;-83
2021/12/25 05:03:15;;;;;;;27.30;13.13;;;;;;;2.70;91.57;100454.25;5021856;28;20066;-82
2021/12/25 05:05:41;;;;;;;26.02;12.50;;;;;;;2.68;91.08;100456.09;4996750;28;20018;-82
2021/12/25 05:08:07;;;;;;;25.50;12.77;;;;;;;2.61;90.71;100458.19;4989725;28;20058;-82
2021/12/25 05:10:33;;;;;;;26.55;12.65;;;;;;;2.54;90.68;100459.41;4988142;28;20145;-82
2021/12/25 05:12:58;;;;;;;25.60;13.10;;;;;;;2.50;91.21;100461.31;4987364;28;20080;-82
2021/12/25 05:15:23;;;;;;;26.27;11.45;;;;;;;2.50;92.27;100455.16;4990294;28;20021;-82
2021/12/25 05:17:49;;;;;;;26.95;13.98;;;;;;;2.47;91.29;100460.63;4990904;28;20026;-82
2021/12/25 05:20:14;;;;;;;25.70;12.70;;;;;;;2.42;91.22;100466.97;4992796;28;20521;-82
2021/12/25 05:22:39;;;;;;;26.92;13.63;;;;;;;2.38;91.17;100464.53;4992628;28;20025;-82
2021/12/25 05:25:06;;;;;;;23.90;12.27;;;;;;;2.34;90.57;100466.47;5011910;28;20359;-82
2021/12/25 05:27:31;;;;;;;26.63;13.48;;;;;;;2.29;89.43;100468.47;4976290;28;20521;-82
2021/12/25 05:29:56;;;;;;;25.83;12.38;;;;;;;2.27;90.67;100468.53;5016140;28;20033;-82
2021/12/25 05:32:21;;;;;;;27.45;13.35;;;;;;;2.22;90.38;100473.19;4993660;28;20466;-82
2021/12/25 05:34:47;;;;;;;26.58;12.95;;;;;;;2.15;89.64;100473.53;4993666;28;20037;-82
2021/12/25 05:37:14;;;;;;;26.05;12.10;;;;;;;2.07;90.08;100471.22;4983352;28;20134;-82
2021/12/25 05:39:42;;;;;;;26.02;12.70;;;;;;;2.01;90.74;100475.00;5014805;28;20035;-82
2021/12/25 05:42:07;;;;;;;26.40;13.00;;;;;;;1.99;91.48;100484.81;5010926;28;20038;-82
2021/12/25 05:44:33;;;;;;;27.33;13.07;;;;;;;1.95;91.18;100480.56;5011317;28;20056;-82
2021/12/25 05:46:59;;;;;;;27.42;13.25;;;;;;;1.90;90.67;100480.78;4974716;28;20049;-82
2021/12/25 05:49:24;;;;;;;26.92;12.80;;;;;;;1.88;91.30;100479.97;4997067;28;20025;-82
2021/12/25 05:51:51;;;;;;;23.15;11.57;;;;;;;1.83;91.30;100486.38;5010427;28;20045;-82
2021/12/25 05:54:16;;;;;;;26.02;13.32;;;;;;;1.79;91.40;100479.50;5011083;28;20038;-82
2021/12/25 05:56:42;;;;;;;25.90;12.05;;;;;;;1.79;91.26;100490.97;5011059;28;20371;-82
2021/12/25 05:59:08;;;;;;;26.02;11.70;;;;;;;1.79;91.30;100490.09;4992855;28;20177;-82
2021/12/25 06:01:33;;;;;;;26.70;13.73;;;;;;;1.75;91.40;100492.88;4996090;28;20518;-82
2021/12/25 06:03:59;;;;;;;25.30;12.38;;;;;;;1.74;91.22;100495.59;4992284;28;20032;-82
2021/12/25 06:06:25;;;;;;;23.48;11.45;;;;;;;1.73;90.67;100501.84;5009939;28;20101;-82
2021/12/25 06:08:51;;;;;;;25.73;13.07;;;;;;;1.69;90.43;100509.03;4992698;28;20146;-82
2021/12/25 06:11:17;;;;;;;25.00;12.20;;;;;;;1.67;91.44;100508.25;4993148;28;20029;-82
2021/12/25 06:13:54;;;;;;;26.08;12.70;;;;;;;1.62;90.81;100512.00;5010748;28;20784;-82
2021/12/25 06:16:20;;;;;;;25.98;12.02;;;;;;;1.60;91.07;100509.44;4992251;28;20038;-82
2021/12/25 06:18:45;;;;;;;25.30;12.73;;;;;;;1.57;91.10;100506.91;5011857;28;20037;-82
2021/12/25 06:21:11;;;;;;;26.27;12.45;;;;;;;1.59;91.25;100510.34;4992070;28;20030;-82
2021/12/25 06:23:36;;;;;;;26.98;12.13;;;;;;;1.58;91.14;100519.22;4992738;28;20026;-82
2021/12/25 06:26:01;;;;;;;24.25;11.10;;;;;;;1.57;90.63;100520.16;4992898;28;20091;-82
2021/12/25 06:28:27;;;;;;;25.00;11.32;;;;;;;1.55;89.79;100519.34;5010025;28;20397;-82
2021/12/25 06:30:52;;;;;;;24.35;11.43;;;;;;;1.53;90.83;100531.78;5002558;28;20128;-82
2021/12/25 06:33:17;;;;;;;23.92;11.30;;;;;;;1.50;90.59;100522.19;4980983;28;20022;-82
2021/12/25 06:35:42;;;;;;;24.08;10.63;;;;;;;1.47;90.94;100532.06;4991818;28;20030;-82
2021/12/25 06:38:08;;;;;;;24.63;10.63;;;;;;;1.43;91.32;100526.00;4982064;28;20055;-82
2021/12/25 06:40:33;;;;;;;25.23;10.20;;;;;;;1.45;91.36;100525.94;4993226;28;20026;-82
2021/12/25 06:42:59;;;;;;;24.27;10.95;;;;;;;1.41;91.36;100527.88;4991315;28;20121;-82
2021/12/25 06:45:24;;;;;;;24.45;10.32;;;;;;;1.40;91.40;100532.28;4990914;28;20029;-82
2021/12/25 06:47:50;;;;;;;24.88;10.77;;;;;;;1.35;91.00;100523.66;4991443;28;20065;-82
2021/12/25 06:50:15;;;;;;;24.33;10.23;;;;;;;1.32;90.86;100528.25;4991821;28;21213;-82
2021/12/25 06:52:41;;;;;;;23.50;10.68;;;;;;;1.30;91.97;100528.28;5009010;28;20129;-82
2021/12/25 06:55:07;;;;;;;21.58;9.35;;;;;;;1.31;91.74;100534.44;4991922;28;20502;-82
2021/12/25 06:57:32;;;;;;;24.98;10.88;;;;;;;1.31;91.88;100537.94;4990385;28;20026;-81
2021/12/25 06:59:57;;;;;;;21.42;9.85;;;;;;;1.28;91.61;100542.53;5014699;28;20053;-82
2021/12/25 07:02:23;;;;;;;24.77;11.25;;;;;;;1.26;91.80;100534.63;5026540;28;20045;-82
2021/12/25 07:04:48;;;;;;;23.45;9.63;;;;;;;1.30;91.26;100538.00;4993643;28;20030;-82
2021/12/25 07:07:16;;;;;;;23.75;10.45;;;;;;;1.31;91.29;100548.53;4990400;28;20123;-82
2021/12/25 07:09:41;;;;;;;21.50;8.05;;;;;;;1.29;91.15;100550.41;4992714;28;20438;-82
2021/12/25 07:12:07;;;;;;;22.70;9.32;;;;;;;1.24;91.75;100552.34;5009860;28;20034;-82
2021/12/25 07:14:32;;;;;;;23.77;9.82;;;;;;;1.23;91.19;100555.94;4972806;28;20022;-82
2021/12/25 07:16:58;;;;;;;22.52;9.18;;;;;;;1.23;91.56;100550.66;4975862;28;20078;-81
2021/12/25 07:19:23;;;;;;;22.38;9.95;;;;;;;1.24;91.37;100556.78;4992359;28;20536;-81
2021/12/25 07:21:48;;;;;;;24.05;11.63;;;;;;;1.22;91.44;100557.72;4972771;28;20038;-82
2021/12/25 07:24:14;;;;;;;22.88;9.70;;;;;;;1.23;91.70;100561.25;4977344;28;20057;-82
2021/12/25 07:26:40;;;;;;;23.60;9.93;;;;;;;1.24;91.49;100568.22;4993000;28;20477;-82
2021/12/25 07:29:06;;;;;;;23.65;9.68;;;;;;;1.22;91.33;100572.75;5009425;28;20033;-82
2021/12/25 07:31:32;;;;;;;23.23;10.57;;;;;;;1.18;90.26;100571.97;5009814;28;20037;-82
2021/12/25 07:33:57;;;;;;;22.13;9.15;;;;;;;1.15;90.38;100576.53;5011675;28;20108;-82
2021/12/25 07:36:23;;;;;;;22.52;9.52;;;;;;;1.17;91.03;100579.97;4987544;28;20693;-82
2021/12/25 07:38:49;;;;;;;23.85;9.30;;;;;;;1.15;90.00;100580.03;4993316;28;20022;-82
2021/12/25 07:41:14;;;;;;;22.98;9.93;;;;;;;1.16;91.21;100573.84;4990408;28;20576;-81
2021/12/25 07:43:40;;;;;;;22.08;8.68;;;;;;;1.12;90.60;100577.50;4991601;28;20029;-82
2021/12/25 07:46:05;;;;;;;20.85;8.27;;;;;;;1.12;90.58;100580.16;5009519;28;20042;-82
2021/12/25 07:48:33;;;;;;;22.35;9.38;;;;;;;1.08;90.76;100581.19;4991121;28;20057;-82
2021/12/25 07:50:59;;;;;;;21.27;8.43;;;;;;;1.08;90.84;100580.34;5006135;28;20107;-82
2021/12/25 07:53:24;;;;;;;23.23;8.82;;;;;;;1.06;90.88;100576.91;4991572;28;20025;-82
2021/12/25 07:55:50;;;;;;;26.17;9.55;;;;;;;1.08;91.82;100589.13;5003141;28;20030;-82
2021/12/25 07:58:16;;;;;;;24.33;9.65;;;;;;;1.07;91.67;100587.44;4991003;28;20600;-82
2021/12/25 08:00:42;;;;;;;24.05;9.25;;;;;;;1.08;91.79;100590.94;4997476;28;20141;-82
2021/12/25 08:03:07;;;;;;;20.05;7.75;;;;;;;1.08;89.83;100583.00;5009225;28;20033;-82
2021/12/25 08:05:34;;;;;;;21.45;8.25;;;;;;;1.05;89.36;100589.25;4988874;28;20026;-82
2021/12/25 08:07:59;;;;;;;20.83;7.55;;;;;;;1.08;88.97;100598.88;4997954;28;20060;-82
2021/12/25 08:10:25;;;;;;;20.00;7.40;;;;;;;1.04;88.92;100593.69;4991084;28;20021;-82
2021/12/25 08:12:53;;;;;;;19.15;7.30;;;;;;;1.05;90.60;100599.84;5009275;28;20441;-82
2021/12/25 08:15:22;;;;;;;19.48;7.53;;;;;;;1.02;89.73;100614.03;4990337;28;20116;-82
2021/12/25 08:17:48;;;;;;;20.85;8.55;;;;;;;1.00;89.13;100617.69;4991042;28;20033;-82
2021/12/25 08:20:14;;;;;;;19.95;6.88;;;;;;;0.99;90.01;100619.44;4991056;28;20044;-82
2021/12/25 08:22:40;;;;;;;19.70;7.10;;;;;;;0.98;89.38;100615.09;4990035;28;20034;-82
2021/12/25 08:25:07;;;;;;;18.67;6.78;;;;;;;0.96;88.57;100627.50;5008687;28;20030;-82
2021/12/25 08:27:33;;;;;;;19.77;6.75;;;;;;;0.93;88.13;100629.41;4989442;28;20053;-82
2021/12/25 08:29:58;;;;;;;19.65;6.60;;;;;;;0.92;88.85;100623.25;5013889;28;20608;-82
2021/12/25 08:32:24;;;;;;;19.08;7.25;;;;;;;0.87;87.82;100628.72;4998477;28;20033;-82
2021/12/25 08:34:49;;;;;;;20.75;7.63;;;;;;;0.81;87.85;100628.94;5008192;28;20067;-82
2021/12/25 08:37:15;;;;;;;19.45;7.32;;;;;;;0.83;88.39;100637.66;4997078;28;20088;-82
2021/12/25 08:39:40;;;;;;;18.92;7.47;;;;;;;0.84;88.48;100638.56;5010112;28;20076;-82
2021/12/25 08:42:07;;;;;;;19.08;7.65;;;;;;;0.85;87.77;100642.94;4987491;28;20042;-82
2021/12/25 08:44:38;;;;;;;19.85;6.70;;;;;;;0.84;87.85;100627.97;4987570;28;20411;-82
2021/12/25 08:47:07;;;;;;;22.90;8.25;;;;;;;0.86;88.18;100649.94;4996018;28;20121;-82
2021/12/25 08:49:35;;;;;;;20.60;7.03;;;;;;;0.84;87.17;100646.50;5008379;28;20030;-82
2021/12/25 08:52:05;;;;;;;20.05;6.90;;;;;;;0.81;87.36;100658.03;4987737;28;20061;-82
2021/12/25 08:54:31;;;;;;;18.80;6.63;;;;;;;0.79;86.25;100649.31;5007202;28;20470;-82
2021/12/25 08:56:56;;;;;;;18.38;7.18;;;;;;;0.77;87.67;100655.56;4993015;28;20129;-81
2021/12/25 08:59:22;;;;;;;17.23;6.15;;;;;;;0.75;86.90;100660.91;4994503;28;20032;-81
2021/12/25 09:01:47;;;;;;;18.75;7.05;;;;;;;0.76;88.17;100659.13;5004220;28;20033;-82
2021/12/25 09:04:13;;;;;;;20.75;6.65;;;;;;;0.74;86.84;100668.91;5012570;28;20060;-81
2021/12/25 09:06:39;;;;;;;21.20;6.47;;;;;;;0.76;86.71;100660.00;4992657;28;20029;-82
2021/12/25 09:09:06;;;;;;;18.35;6.18;;;;;;;0.75;86.05;100658.28;4994516;28;20117;-82
2021/12/25 09:11:32;;;;;;;19.38;6.90;;;;;;;0.77;86.24;100658.22;5010331;28;20362;-82
2021/12/25 09:13:58;;;;;;;18.13;6.47;;;;;;;0.76;87.41;100659.13;5011686;28;20128;-82
2021/12/25 09:16:23;;;;;;;18.40;6.50;;;;;;;0.78;87.96;100665.25;4995465;28;20021;-82
2021/12/25 09:18:49;;;;;;;19.25;7.15;;;;;;;0.76;86.00;100661.78;4995106;28;20033;-82
2021/12/25 09:21:15;;;;;;;16.42;5.97;;;;;;;0.75;85.51;100673.25;5011783;28;20014;-82
2021/12/25 09:23:41;;;;;;;19.13;6.53;;;;;;;0.77;85.80;100667.00;4994439;28;20030;-81
2021/12/25 09:26:06;;;;;;;21.77;7.55;;;;;;;0.79;85.79;100677.53;5011627;28;20030;-82
2021/12/25 09:28:31;;;;;;;21.55;8.20;;;;;;;0.75;86.82;100676.78;4994256;28;20474;-82
2021/12/25 09:30:57;;;;;;;18.67;6.90;;;;;;;0.72;85.43;100673.38;5025596;28;20488;-82
2021/12/25 09:33:22;;;;;;;18.08;6.00;;;;;;;0.71;84.88;100671.66;5026872;28;20100;-82
2021/12/25 09:35:48;;;;;;;20.08;6.25;;;;;;;0.69;85.91;100677.88;4993701;28;20021;-82
2021/12/25 09:38:13;;;;;;;19.10;6.53;;;;;;;0.68;84.98;100669.97;4984785;28;20052;-82
2021/12/25 09:40:39;;;;;;;18.90;6.55;;;;;;;0.69;85.25;100675.22;4998996;28;20453;-82
2021/12/25 09:43:04;;;;;;;19.50;6.78;;;;;;;0.66;84.89;100683.25;4994534;28;20092;-82
2021/12/25 09:45:29;;;;;;;20.73;7.03;;;;;;;0.69;85.93;100687.59;4991259;28;20026;-82
2021/12/25 09:47:55;;;;;;;19.10;5.97;;;;;;;0.69;84.93;100693.72;5001739;28;20030;-82
2021/12/25 09:50:20;;;;;;;18.55;6.35;;;;;;;0.69;83.31;100692.88;5011796;28;20033;-83
2021/12/25 09:52:46;;;;;;;18.75;6.32;;;;;;;0.66;83.89;100688.56;4994551;28;20485;-83
2021/12/25 09:55:13;;;;;;;18.65;6.25;;;;;;;0.62;83.79;100694.84;4978919;28;20033;-82
2021/12/25 09:57:39;;;;;;;18.55;6.25;;;;;;;0.64;84.30;100700.94;4974765;28;20026;-82
2021/12/25 10:00:11;;;;;;;17.30;5.10;;;;;;;0.63;84.06;100706.28;4982377;28;20048;-82
2021/12/25 10:02:51;;;;;;;18.10;6.38;;;;;;;0.59;83.49;100708.19;4990687;28;20026;-83
2021/12/25 10:05:29;;;;;;;20.42;7.20;;;;;;;0.61;85.02;100716.06;4995907;28;20466;-82
2021/12/25 10:08:11;;;;;;;19.10;7.32;;;;;;;0.57;83.96;100717.97;4994558;28;20053;-82
2021/12/25 10:10:42;;;;;;;21.00;7.80;;;;;;;0.55;84.95;100726.88;4994085;28;20394;-82
2021/12/25 10:13:29;;;;;;;18.67;6.65;;;;;;;0.56;84.72;100724.16;4974501;28;20081;-82
2021/12/25 10:15:58;;;;;;;16.95;6.20;;;;;;;0.55;83.71;100721.56;4992072;28;20026;-82
2021/12/25 10:18:26;;;;;;;20.02;7.20;;;;;;;0.53;83.87;100716.34;5012614;28;20041;-83
2021/12/25 10:20:51;;;;;;;18.95;6.85;;;;;;;0.54;82.71;100712.75;5010768;28;20065;-82
2021/12/25 10:23:22;;;;;;;18.83;6.88;;;;;;;0.53;85.52;100718.97;4993746;28;20555;-82
2021/12/25 10:25:51;;;;;;;16.98;6.00;;;;;;;0.59;83.68;100723.22;4994387;28;20469;-82
2021/12/25 10:28:21;;;;;;;17.88;6.47;;;;;;;0.58;82.91;100717.03;4994837;28;20466;-83
2021/12/25 10:30:59;;;;;;;18.33;5.97;;;;;;;0.62;84.23;100718.66;5017360;28;20115;-82
2021/12/25 10:33:32;;;;;;;18.08;6.38;;;;;;;0.58;82.22;100711.75;5011711;28;20026;-83
2021/12/25 10:36:19;;;;;;;17.38;5.85;;;;;;;0.58;83.15;100721.47;4993296;28;20436;-83
2021/12/25 10:39:04;;;;;;;21.33;6.43;;;;;;;0.54;83.44;100715.41;4999463;28;20033;-82
2021/12/25 10:41:31;;;;;;;18.15;5.85;;;;;;;0.50;83.20;100713.81;4975322;28;20088;-83
2021/12/25 10:44:21;;;;;;;18.63;5.82;;;;;;;0.52;83.47;100715.47;4993980;28;20539;-83
2021/12/25 10:46:49;;;;;;;21.20;7.47;;;;;;;0.51;84.20;100713.75;4994957;28;20122;-83
2021/12/25 10:49:14;;;;;;;24.05;6.40;;;;;;;0.47;82.76;100716.53;4993549;28;20083;-83
2021/12/25 10:51:40;;;;;;;15.85;5.45;;;;;;;0.45;81.79;100713.06;4993091;28;20025;-83
2021/12/25 10:54:07;;;;;;;18.63;6.22;;;;;;;0.44;83.75;100716.63;4993391;28;20038;-83
2021/12/25 10:56:37;;;;;;;17.70;5.88;;;;;;;0.42;83.28;100714.03;5011989;28;20112;-83
2021/12/25 10:59:06;;;;;;;16.25;5.07;;;;;;;0.43;82.16;100707.00;5011760;28;20036;-83
2021/12/25 11:01:38;;;;;;;15.95;5.40;;;;;;;0.40;83.12;100713.25;4998319;28;20030;-83
2021/12/25 11:04:04;;;;;;;16.80;5.72;;;;;;;0.43;83.04;100709.63;5015495;28;20410;-83
2021/12/25 11:06:29;;;;;;;14.70;4.72;;;;;;;0.39;81.47;100711.50;5005097;28;21003;-83
2021/12/25 11:08:58;;;;;;;15.63;5.47;;;;;;;0.34;81.19;100708.16;5011714;28;20060;-83
2021/12/25 11:11:23;;;;;;;14.98;4.90;;;;;;;0.30;81.90;100717.97;5011653;28;20037;-83
2021/12/25 11:13:52;;;;;;;19.48;5.60;;;;;;;0.33;81.97;100715.22;5011813;28;20478;-83
2021/12/25 11:16:38;;;;;;;16.60;4.47;;;;;;;0.38;82.14;100716.84;5010884;28;20633;-83
2021/12/25 11:19:10;;;;;;;16.33;4.90;;;;;;;0.34;82.22;100724.88;4993760;28;20109;-83
2021/12/25 11:21:43;;;;;;;14.73;4.65;;;;;;;0.29;82.26;100736.50;5006779;28;20036;-83
2021/12/25 11:24:16;;;;;;;17.13;5.50;;;;;;;0.31;83.68;100719.69;4995975;28;20109;-83
2021/12/25 11:26:44;;;;;;;16.35;5.30;;;;;;;0.32;82.35;100726.72;4999887;28;20045;-83
2021/12/25 11:29:12;;;;;;;14.32;4.60;;;;;;;0.27;81.13;100718.06;4989900;28;20080;-83
2021/12/25 11:31:39;;;;;;;16.52;4.95;;;;;;;0.29;82.24;100712.72;4988876;28;20030;-84
2021/12/25 11:34:05;;;;;;;18.85;5.10;;;;;;;0.26;82.08;100700.47;4995567;28;20045;-83
2021/12/25 11:36:31;;;;;;;13.73;4.30;;;;;;;0.24;81.37;100691.72;4989652;28;20508;-84
2021/12/25 11:38:57;;;;;;;14.98;4.40;;;;;;;0.19;81.85;100696.31;4982974;28;20025;-84
2021/12/25 11:41:29;;;;;;;13.23;4.05;;;;;;;0.20;83.00;100699.81;5008866;28;20673;-84
2021/12/25 11:43:55;;;;;;;12.40;4.45;;;;;;;0.17;81.31;100696.34;4988197;28;20044;-83
2021/12/25 11:46:23;;;;;;;15.00;5.03;;;;;;;0.16;83.85;100693.75;4990588;28;20630;-83
2021/12/25 11:49:13;;;;;;;13.80;3.60;;;;;;;0.21;83.10;100706.84;4992568;28;20057;-83
2021/12/25 11:51:40;;;;;;;12.65;4.07;;;;;;;0.20;81.34;100711.25;5008060;28;20056;-84
2021/12/25 11:54:41;;;;;;;13.15;3.97;;;;;;;0.27;83.51;100726.00;4991622;28;20037;-84
2021/12/25 11:59:47;;;;;;;13.43;3.90;;;;;;;0.28;83.09;100703.94;5013979;28;20033;-84
2021/12/25 12:02:36;;;;;;;8.57;3.30;;;;;;;0.36;82.61;100702.81;4991697;28;20026;-84
2021/12/25 12:05:29;;;;;;;12.02;3.60;;;;;;;0.31;81.55;100703.84;4994166;28;20455;-83
2021/12/25 12:07:57;;;;;;;13.55;3.60;;;;;;;0.26;81.48;100711.03;4999351;28;20140;-83
2021/12/25 12:10:59;;;;;;;10.70;3.50;;;;;;;0.23;81.88;100705.84;4999811;28;20057;-84
2021/12/25 12:13:28;;;;;;;12.75;3.30;;;;;;;0.18;81.54;100697.22;4999250;28;20021;-84
2021/12/25 12:15:57;;;;;;;9.30;2.72;;;;;;;0.14;81.21;100704.38;5002901;28;20022;-84
2021/12/25 12:18:33;;;;;;;10.52;3.55;;;;;;;0.16;83.48;100699.91;4991833;28;20087;-83
2021/12/25 12:21:10;;;;;;;13.90;4.03;;;;;;;0.18;82.23;100702.50;5018698;28;20033;-84
2021/12/25 12:26:13;;;;;;;15.35;4.28;;;;;;;0.20;82.39;100683.97;5014608;28;20030;-83
2021/12/25 12:28:42;;;;;;;12.23;3.47;;;;;;;0.21;82.82;100681.25;5008706;28;20231;-83
2021/12/25 12:31:07;;;;;;;10.10;3.17;;;;;;;0.22;81.43;100674.19;4996214;28;20099;-84
2021/12/25 12:33:34;;;;;;;11.85;3.30;;;;;;;0.21;81.33;100668.06;4991952;28;20363;-83
2021/12/25 12:36:01;;;;;;;9.05;2.58;;;;;;;0.21;80.58;100664.56;4990583;28;20024;-84
2021/12/25 12:38:43;;;;;;;10.45;3.03;;;;;;;0.21;81.24;100670.69;5002629;28;20029;-84